createdAt,value
2022-08-30T00:00:54.402Z,102239.41
2022-08-30T00:03:56.720Z,102242.81
2022-08-30T00:06:59.588Z,102230.22
2022-08-30T00:10:01.952Z,102234.56
2022-08-30T00:13:05.226Z,102231.88
2022-08-30T00:16:07.434Z,102232.81
2022-08-30T00:19:09.489Z,102227.56
2022-08-30T00:22:11.521Z,102228.53
2022-08-30T00:25:14.223Z,102225.03
2022-08-30T00:28:16.243Z,102225.09
2022-08-30T00:31:18.296Z,102221.63
2022-08-30T00:34:20.368Z,102231.56
2022-08-30T00:37:22.700Z,102227.25
2022-08-30T00:40:28.820Z,102221.22
2022-08-30T00:43:32.775Z,102232.72
2022-08-30T00:46:34.853Z,102229.22
2022-08-30T00:49:41.961Z,102225.81
2022-08-30T00:52:47.589Z,102232.81
2022-08-30T00:55:50.271Z,102231.94
2022-08-30T00:58:57.075Z,102232.94
2022-08-30T01:01:59.128Z,102220.63
2022-08-30T01:05:03.542Z,102227.63
2022-08-30T01:08:06.605Z,102230.19
2022-08-30T01:11:09.597Z,102228.41
2022-08-30T01:14:13.103Z,102230.97
2022-08-30T01:17:15.404Z,102226.38
2022-08-30T01:20:54.958Z,102225.59
2022-08-30T01:23:58.965Z,102234.47
2022-08-30T01:27:01.647Z,102241.66
2022-08-30T01:30:06.761Z,102235.53
2022-08-30T01:33:10.582Z,102241.06
2022-08-30T01:36:14.868Z,102232.38
2022-08-30T01:39:18.109Z,102240.44
2022-08-30T01:42:20.567Z,102237.94
2022-08-30T01:45:22.668Z,102244.28
2022-08-30T01:48:30.187Z,102249.69
2022-08-30T01:51:34.071Z,102240.69
2022-08-30T01:54:38.434Z,102239.75
2022-08-30T01:57:40.821Z,102237.13
2022-08-30T02:00:42.824Z,102237.16
2022-08-30T02:03:45.890Z,102240.78
2022-08-30T02:06:47.957Z,102240.78
2022-08-30T02:09:50.843Z,102247.03
2022-08-30T02:12:52.860Z,102240.97
2022-08-30T02:15:54.950Z,102240.06
2022-08-30T02:18:57.050Z,102240.06
2022-08-30T02:22:17.525Z,102232.09
2022-08-30T02:25:21.206Z,102239.31
2022-08-30T02:28:23.390Z,102231.41
2022-08-30T02:31:26.734Z,102226.19
2022-08-30T02:34:28.768Z,102232.56
2022-08-30T02:37:30.797Z,102231.88
2022-08-30T02:40:33.608Z,102226.66
2022-08-30T02:43:35.757Z,102224.09
2022-08-30T02:46:38.617Z,102220.69
2022-08-30T02:49:40.618Z,102219.78
2022-08-30T02:52:42.660Z,102212.63
2022-08-30T02:55:48.264Z,102212.63
2022-08-30T02:58:50.291Z,102204.81
2022-08-30T03:01:52.460Z,102207.63
2022-08-30T03:04:54.502Z,102209.47
2022-08-30T03:07:56.542Z,102221.97
2022-08-30T03:10:59.397Z,102217.66
2022-08-30T03:14:01.548Z,102216.91
2022-08-30T03:17:06.056Z,102209.00
2022-08-30T03:20:09.761Z,102208.22
2022-08-30T03:23:21.397Z,102207.41
2022-08-30T03:26:24.003Z,102209.16
2022-08-30T03:29:26.247Z,102211.00
2022-08-30T03:32:28.316Z,102203.97
2022-08-30T03:35:30.537Z,102205.88
2022-08-30T03:38:35.863Z,102198.06
2022-08-30T03:41:37.935Z,102199.84
2022-08-30T03:44:41.378Z,102205.06
2022-08-30T03:47:44.441Z,102206.81
2022-08-30T03:50:46.456Z,102205.19
2022-08-30T03:53:48.722Z,102204.34
2022-08-30T03:56:50.757Z,102217.59
2022-08-30T03:59:52.854Z,102207.84
2022-08-30T04:02:54.892Z,102207.84
2022-08-30T04:05:56.893Z,102215.81
2022-08-30T04:08:59.181Z,102203.47
2022-08-30T04:12:01.205Z,102201.72
2022-08-30T04:15:04.013Z,102208.75
2022-08-30T04:18:06.165Z,102201.66
2022-08-30T04:21:12.358Z,102202.59
2022-08-30T04:24:16.326Z,102198.09
2022-08-30T04:27:18.414Z,102197.25
2022-08-30T04:30:20.721Z,102199.97
2022-08-30T04:33:23.790Z,102196.44
2022-08-30T04:36:25.835Z,102200.78
2022-08-30T04:39:27.873Z,102201.69
2022-08-30T04:42:32.427Z,102203.34
2022-08-30T04:45:34.475Z,102205.97
2022-08-30T04:48:37.764Z,102217.41
2022-08-30T04:51:39.784Z,102216.53
2022-08-30T04:54:41.829Z,102220.03
2022-08-30T04:57:43.927Z,102227.09
2022-08-30T05:00:45.993Z,102228.81
2022-08-30T05:03:49.409Z,102240.34
2022-08-30T05:06:51.429Z,102244.84
2022-08-30T05:09:53.464Z,102238.63
2022-08-30T05:12:55.618Z,102239.59
2022-08-30T05:15:57.684Z,102247.59
2022-08-30T05:19:00.897Z,102253.69
2022-08-30T05:22:03.763Z,102260.69
2022-08-30T05:25:08.017Z,102257.06
2022-08-30T05:28:10.165Z,102258.69
2022-08-30T05:31:19.115Z,102265.66
2022-08-30T05:34:21.263Z,102266.44
2022-08-30T05:37:23.348Z,102270.75
2022-08-30T05:40:25.472Z,102262.63
2022-08-30T05:43:31.811Z,102268.72
2022-08-30T05:49:37.295Z,102261.44
2022-08-30T05:52:41.510Z,102259.59
2022-08-30T05:55:43.732Z,102256.84
2022-08-30T05:58:45.812Z,102251.34
2022-08-30T06:01:47.999Z,102257.97
2022-08-30T06:04:50.095Z,102254.84
2022-08-30T06:07:52.352Z,102263.28
2022-08-30T06:10:54.483Z,102261.50
2022-08-30T06:13:56.636Z,102268.22
2022-08-30T06:16:58.691Z,102271.44
2022-08-30T06:20:00.796Z,102265.91
2022-08-30T06:23:02.896Z,102267.94
2022-08-30T06:26:06.768Z,102273.59
2022-08-30T06:29:11.043Z,102272.81
2022-08-30T06:32:13.055Z,102277.16
2022-08-30T06:35:15.092Z,102266.28
2022-08-30T06:38:17.343Z,102262.03
2022-08-30T06:41:22.475Z,102260.38
2022-08-30T06:44:24.503Z,102262.00
2022-08-30T06:47:27.293Z,102260.25
2022-08-30T06:50:30.473Z,102264.28
2022-08-30T06:53:33.105Z,102256.66
2022-08-30T06:56:36.686Z,102259.63
2022-08-30T06:59:39.258Z,102261.72
2022-08-30T07:02:41.882Z,102256.13
2022-08-30T07:05:43.986Z,102257.69
2022-08-30T07:08:46.782Z,102255.16
2022-08-30T07:11:49.187Z,102256.78
2022-08-30T07:14:51.407Z,102254.75
2022-08-30T07:17:53.434Z,102245.00
2022-08-30T07:20:55.972Z,102262.34
2022-08-30T07:23:59.911Z,102254.56
2022-08-30T07:27:08.307Z,102261.59
2022-08-30T07:30:11.317Z,102269.22
2022-08-30T07:33:13.444Z,102263.47
2022-08-30T07:36:16.235Z,102267.53
2022-08-30T07:39:18.722Z,102262.28
2022-08-30T07:42:21.051Z,102261.09
2022-08-30T07:45:23.196Z,102261.81
2022-08-30T07:48:25.240Z,102259.25
2022-08-30T07:51:28.508Z,102265.06
2022-08-30T07:54:30.690Z,102271.19
2022-08-30T07:57:32.701Z,102271.53
2022-08-30T08:00:34.705Z,102273.38
2022-08-30T08:03:37.854Z,102276.38
2022-08-30T08:06:40.280Z,102279.94
2022-08-30T08:09:42.398Z,102286.06
2022-08-30T08:12:44.406Z,102276.59
2022-08-30T08:15:47.436Z,102273.31
2022-08-30T08:18:49.518Z,102284.81
2022-08-30T08:22:15.362Z,102276.31
2022-08-30T08:25:13.542Z,102277.44
2022-08-30T08:28:15.677Z,102276.00
2022-08-30T08:31:20.804Z,102282.81
2022-08-30T08:34:23.444Z,102283.19
2022-08-30T08:37:26.731Z,102280.19
2022-08-30T08:40:37.253Z,102276.38
2022-08-30T08:43:39.635Z,102269.88
2022-08-30T08:46:55.039Z,102276.66
2022-08-30T08:50:02.394Z,102282.41
2022-08-30T08:53:36.047Z,102280.88
2022-08-30T08:56:39.133Z,102282.94
2022-08-30T08:59:43.214Z,102284.03
2022-08-30T09:02:56.728Z,102279.94
2022-08-30T09:05:58.964Z,102279.53
2022-08-30T09:09:01.108Z,102277.94
2022-08-30T09:12:05.957Z,102285.03
2022-08-30T09:15:25.119Z,102269.16
2022-08-30T09:18:50.211Z,102265.19
2022-08-30T09:22:06.479Z,102265.59
2022-08-30T09:25:13.422Z,102270.19
2022-08-30T09:28:22.953Z,102273.41
2022-08-30T09:31:30.523Z,102272.25
2022-08-30T09:34:32.846Z,102267.38
2022-08-30T09:37:47.458Z,102273.41
2022-08-30T09:40:55.354Z,102275.63
2022-08-30T09:44:08.361Z,102276.38
2022-08-30T09:47:27.422Z,102277.19
2022-08-30T09:50:35.284Z,102284.59
2022-08-30T09:54:17.201Z,102277.59
2022-08-30T09:57:34.052Z,102286.81
2022-08-30T10:00:50.991Z,102275.47
2022-08-30T10:04:08.620Z,102281.09
2022-08-30T10:07:23.771Z,102289.06
2022-08-30T10:10:45.691Z,102278.78
2022-08-30T10:14:04.476Z,102275.00
2022-08-30T10:17:21.019Z,102277.00
2022-08-30T10:20:42.792Z,102274.88
2022-08-30T10:23:53.984Z,102274.19
2022-08-30T10:27:02.697Z,102277.63
2022-08-30T10:30:11.481Z,102283.00
2022-08-30T10:33:36.602Z,102283.34
2022-08-30T10:36:44.719Z,102271.56
2022-08-30T10:39:52.722Z,102273.00
2022-08-30T10:43:02.712Z,102283.56
2022-08-30T10:46:11.041Z,102274.31
2022-08-30T10:49:20.719Z,102281.09
2022-08-30T10:52:35.516Z,102278.13
2022-08-30T10:55:49.430Z,102285.47
2022-08-30T10:58:52.744Z,102283.38
2022-08-30T11:02:22.940Z,102273.19
2022-08-30T11:05:42.014Z,102272.22
2022-08-30T11:09:04.871Z,102280.25
2022-08-30T11:12:32.387Z,102271.06
2022-08-30T11:15:54.759Z,102276.13
2022-08-30T11:18:58.130Z,102271.19
2022-08-30T11:22:16.773Z,102269.97
2022-08-30T11:25:58.134Z,102285.47
2022-08-30T11:29:04.789Z,102275.88
2022-08-30T11:32:14.645Z,102283.78
2022-08-30T11:35:46.068Z,102268.88
2022-08-30T11:38:58.208Z,102260.41
2022-08-30T11:42:58.891Z,102263.09
2022-08-30T11:46:15.589Z,102247.91
2022-08-30T11:49:41.568Z,102259.09
2022-08-30T11:52:50.370Z,102253.44
2022-08-30T11:55:59.718Z,102246.94
2022-08-30T11:59:17.836Z,102248.25
2022-08-30T12:02:45.496Z,102235.94
2022-08-30T12:06:10.037Z,102242.84
2022-08-30T12:09:34.988Z,102241.88
2022-08-30T12:12:47.222Z,102244.47
2022-08-30T12:16:00.334Z,102244.44
2022-08-30T12:19:17.567Z,102237.03
2022-08-30T12:22:22.315Z,102239.19
2022-08-30T12:25:33.815Z,102233.75
2022-08-30T12:28:37.169Z,102237.53
2022-08-30T12:31:51.982Z,102248.34
2022-08-30T12:34:57.304Z,102234.81
2022-08-30T12:38:05.402Z,102238.63
2022-08-30T12:41:07.999Z,102240.78
2022-08-30T12:44:18.563Z,102222.84
2022-08-30T12:47:31.181Z,102228.28
2022-08-30T12:50:42.775Z,102228.09
2022-08-30T12:53:44.889Z,102234.41
2022-08-30T12:57:03.660Z,102238.28
2022-08-30T13:00:35.011Z,102241.75
2022-08-30T13:03:37.569Z,102237.22
2022-08-30T13:06:44.066Z,102240.53
2022-08-30T13:09:46.337Z,102230.59
2022-08-30T13:13:03.885Z,102230.13
2022-08-30T13:16:12.525Z,102220.31
2022-08-30T13:19:38.144Z,102202.81
2022-08-30T13:23:05.631Z,102205.19
2022-08-30T13:26:08.345Z,102206.22
2022-08-30T13:29:16.518Z,102209.97
2022-08-30T13:32:18.760Z,102213.94
2022-08-30T13:35:20.935Z,102210.94
2022-08-30T13:38:23.163Z,102201.72
2022-08-30T13:41:25.405Z,102207.56
2022-08-30T13:44:32.350Z,102212.09
2022-08-30T13:47:37.072Z,102199.66
2022-08-30T13:50:40.232Z,102198.13
2022-08-30T13:53:58.134Z,102202.09
2022-08-30T13:57:00.652Z,102196.50
2022-08-30T14:00:12.225Z,102212.41
2022-08-30T14:03:15.068Z,102202.53
2022-08-30T14:06:32.666Z,102204.06
2022-08-30T14:09:36.003Z,102202.44
2022-08-30T14:12:58.872Z,102200.69
2022-08-30T14:19:28.077Z,102192.94
2022-08-30T14:22:30.129Z,102191.66
2022-08-30T14:25:32.338Z,102201.59
2022-08-30T14:28:34.367Z,102193.78
2022-08-30T14:31:39.900Z,102200.34
2022-08-30T14:34:42.091Z,102196.72
2022-08-30T14:37:45.300Z,102192.00
2022-08-30T14:40:47.320Z,102195.25
2022-08-30T14:43:50.813Z,102192.94
2022-08-30T14:46:53.674Z,102206.16
2022-08-30T14:49:55.869Z,102202.22
2022-08-30T14:52:57.908Z,102203.00
2022-08-30T14:56:00.010Z,102196.84
2022-08-30T14:59:02.424Z,102200.50
2022-08-30T15:02:04.482Z,102201.50
2022-08-30T15:05:07.108Z,102197.38
2022-08-30T15:08:10.583Z,102193.31
2022-08-30T15:11:14.582Z,102187.72
2022-08-30T15:14:17.443Z,102190.13
2022-08-30T15:17:19.471Z,102182.66
2022-08-30T15:20:21.513Z,102179.44
2022-08-30T15:23:24.870Z,102167.91
2022-08-30T15:26:27.545Z,102174.31
2022-08-30T15:29:30.438Z,102169.84
2022-08-30T15:32:33.974Z,102161.41
2022-08-30T15:35:36.030Z,102174.34
2022-08-30T15:38:38.188Z,102162.03
2022-08-30T15:41:43.783Z,102154.25
2022-08-30T15:44:50.861Z,102152.56
2022-08-30T15:47:52.908Z,102151.78
2022-08-30T15:50:58.297Z,102157.31
2022-08-30T15:54:00.344Z,102150.22
2022-08-30T15:57:02.449Z,102158.72
2022-08-30T16:00:08.594Z,102155.06
2022-08-30T16:03:11.625Z,102149.69
2022-08-30T16:06:23.241Z,102151.94
2022-08-30T16:09:25.469Z,102144.47
2022-08-30T16:12:32.180Z,102142.97
2022-08-30T16:15:34.189Z,102139.84
2022-08-30T16:18:37.354Z,102140.84
2022-08-30T16:21:39.553Z,102138.56
2022-08-30T16:24:41.626Z,102142.44
2022-08-30T16:27:46.359Z,102143.28
2022-08-30T16:30:48.367Z,102144.34
2022-08-30T16:33:52.743Z,102149.31
2022-08-30T16:36:54.998Z,102131.84
2022-08-30T16:39:57.037Z,102134.88
2022-08-30T16:42:59.341Z,102136.13
2022-08-30T16:46:03.262Z,102133.75
2022-08-30T16:49:05.202Z,102127.94
2022-08-30T16:52:07.938Z,102126.22
2022-08-30T16:55:10.123Z,102121.81
2022-08-30T16:58:14.872Z,102123.00
2022-08-30T17:01:21.777Z,102130.22
2022-08-30T17:04:24.011Z,102129.19
2022-08-30T17:07:27.234Z,102128.88
2022-08-30T17:10:33.341Z,102122.72
2022-08-30T17:13:35.685Z,102130.44
2022-08-30T17:16:38.139Z,102135.19
2022-08-30T17:19:41.194Z,102130.44
2022-08-30T17:22:44.639Z,102129.50
2022-08-30T17:25:49.084Z,102122.50
2022-08-30T17:28:51.121Z,102127.53
2022-08-30T17:31:53.305Z,102128.44
2022-08-30T17:34:55.405Z,102123.44
2022-08-30T17:37:57.468Z,102130.91
2022-08-30T17:41:08.470Z,102132.00
2022-08-30T17:44:11.539Z,102141.53
2022-08-30T17:47:13.564Z,102144.53
2022-08-30T17:50:16.252Z,102146.84
2022-08-30T17:53:21.642Z,102145.75
2022-08-30T17:56:35.311Z,102158.66
2022-08-30T17:59:37.963Z,102160.03
2022-08-30T18:02:41.290Z,102153.25
2022-08-30T18:05:43.296Z,102159.97
2022-08-30T18:08:48.859Z,102172.00
2022-08-30T18:11:56.223Z,102173.34
2022-08-30T18:14:58.657Z,102173.81
2022-08-30T18:18:00.902Z,102174.16
2022-08-30T18:21:13.034Z,102172.81
2022-08-30T18:24:16.267Z,102182.22
2022-08-30T18:27:18.361Z,102181.00
2022-08-30T18:30:20.416Z,102179.41
2022-08-30T18:33:24.451Z,102189.47
2022-08-30T18:36:27.270Z,102200.56
2022-08-30T18:39:34.491Z,102204.28
2022-08-30T18:42:37.500Z,102200.09
2022-08-30T18:45:43.715Z,102198.56
2022-08-30T18:48:46.609Z,102194.34
2022-08-30T18:51:48.637Z,102199.78
2022-08-30T18:54:53.052Z,102207.06
2022-08-30T18:57:56.664Z,102199.13
2022-08-30T19:00:58.729Z,102198.53
2022-08-30T19:04:02.138Z,102200.44
2022-08-30T19:07:06.875Z,102216.53
2022-08-30T19:13:32.556Z,102221.38
2022-08-30T19:16:35.167Z,102216.34
2022-08-30T19:19:48.498Z,102218.25
2022-08-30T19:23:10.340Z,102230.94
2022-08-30T19:26:13.007Z,102227.34
2022-08-30T19:29:15.080Z,102230.19
2022-08-30T19:32:17.080Z,102224.09
2022-08-30T19:35:19.995Z,102228.50
2022-08-30T19:38:22.310Z,102227.88
2022-08-30T19:41:24.412Z,102226.25
2022-08-30T19:44:26.501Z,102229.84
2022-08-30T19:47:28.501Z,102229.84
2022-08-30T19:50:30.981Z,102229.94
2022-08-30T19:53:33.428Z,102230.16
2022-08-30T19:56:35.588Z,102232.03
2022-08-30T19:59:38.372Z,102235.66
2022-08-30T20:02:40.831Z,102231.44
2022-08-30T20:05:42.953Z,102237.50
2022-08-30T20:08:45.097Z,102232.31
2022-08-30T20:11:49.254Z,102237.78
2022-08-30T20:14:57.317Z,102236.13
2022-08-30T20:18:05.368Z,102242.34
2022-08-30T20:21:13.575Z,102237.97
2022-08-30T20:24:15.825Z,102236.34
2022-08-30T20:24:31.971Z,102209.72
2022-08-30T20:27:17.821Z,102239.00
2022-08-30T20:30:19.884Z,102232.94
2022-08-30T20:33:23.974Z,102243.59
2022-08-30T20:36:26.745Z,102238.28
2022-08-30T20:39:28.772Z,102246.25
2022-08-30T20:42:30.913Z,102251.75
2022-08-30T20:45:33.933Z,102242.84
2022-08-30T20:48:36.592Z,102246.56
2022-08-30T20:51:39.426Z,102247.41
2022-08-30T20:54:41.655Z,102252.72
2022-08-30T20:57:43.853Z,102246.63
2022-08-30T21:00:50.153Z,102250.09
2022-08-30T21:03:52.825Z,102249.22
2022-08-30T21:06:54.825Z,102249.41
2022-08-30T21:09:56.867Z,102252.13
2022-08-30T21:12:58.871Z,102254.06
2022-08-30T21:16:03.433Z,102257.75
2022-08-30T21:19:05.868Z,102257.97
2022-08-30T21:22:07.872Z,102255.31
2022-08-30T21:25:10.106Z,102254.41
2022-08-30T21:28:12.158Z,102259.81
2022-08-30T21:31:17.597Z,102265.19
2022-08-30T21:34:19.813Z,102263.38
2022-08-30T21:37:22.090Z,102270.81
2022-08-30T21:40:24.154Z,102268.25
2022-08-30T21:43:26.235Z,102261.97
2022-08-30T21:46:29.640Z,102270.06
2022-08-30T21:49:31.815Z,102270.19
2022-08-30T21:52:34.561Z,102280.09
2022-08-30T21:55:36.571Z,102280.09
2022-08-30T21:58:38.594Z,102284.75
2022-08-30T22:01:40.800Z,102283.97
2022-08-30T22:04:42.864Z,102280.63
2022-08-30T22:07:44.878Z,102285.09
2022-08-30T22:10:46.877Z,102284.19
2022-08-30T22:13:50.103Z,102287.94
2022-08-30T22:16:52.547Z,102287.94
2022-08-30T22:19:54.753Z,102283.78
2022-08-30T22:22:56.784Z,102286.47
2022-08-30T22:26:00.891Z,102282.06
2022-08-30T22:29:04.001Z,102287.56
2022-08-30T22:32:06.472Z,102279.84
2022-08-30T22:35:08.934Z,102286.97
2022-08-30T22:38:11.659Z,102284.41
2022-08-30T22:41:17.600Z,102291.50
2022-08-30T22:44:19.604Z,102288.00
2022-08-30T22:47:21.624Z,102288.13
2022-08-30T22:50:23.673Z,102289.94
2022-08-30T22:53:25.682Z,102290.06
2022-08-30T22:56:28.529Z,102293.75
2022-08-30T22:59:31.455Z,102283.25
2022-08-30T23:02:34.613Z,102286.06
2022-08-30T23:05:36.659Z,102287.81
2022-08-30T23:08:38.675Z,102289.75
2022-08-30T23:11:40.693Z,102282.69
2022-08-30T23:14:42.698Z,102281.94
2022-08-30T23:17:44.757Z,102282.06
2022-08-30T23:20:46.848Z,102284.84
2022-08-30T23:23:50.767Z,102278.66
2022-08-30T23:26:52.786Z,102285.81
2022-08-30T23:29:54.776Z,102277.97
2022-08-30T23:32:56.769Z,102278.78
2022-08-30T23:35:58.813Z,102286.88
2022-08-30T23:39:03.050Z,102277.09
2022-08-30T23:42:06.400Z,102280.69
2022-08-30T23:45:08.641Z,102280.81
2022-08-30T23:48:10.664Z,102289.78
2022-08-30T23:51:21.895Z,102292.44
2022-08-30T23:54:24.906Z,102279.22
2022-08-30T23:57:26.988Z,102290.84
